createdAt,value
2019-02-23T00:02:16.124Z,104197.48
2019-02-23T00:05:19.962Z,104199.71
2019-02-23T00:08:23.817Z,104188.63
2019-02-23T00:11:27.946Z,104183.21
2019-02-23T00:14:31.805Z,104179.98
2019-02-23T00:17:35.782Z,104171.55
2019-02-23T00:20:39.665Z,104178.59
2019-02-23T00:23:43.457Z,104179.41
2019-02-23T00:26:47.400Z,104182.52
2019-02-23T00:29:52.779Z,104188.84
2019-02-23T00:32:56.642Z,104197.42
2019-02-23T00:36:00.396Z,104197.81
2019-02-23T00:39:05.076Z,104202.73
2019-02-23T00:42:08.870Z,104211.31
2019-02-23T00:45:12.775Z,104209.89
2019-02-23T00:48:16.551Z,104206.39
2019-02-23T00:51:20.349Z,104203.66
2019-02-23T00:54:24.239Z,104202.36
2019-02-23T00:57:28.068Z,104205.39
2019-02-23T01:00:31.876Z,104214.62
2019-02-23T01:03:35.853Z,104221.67
2019-02-23T01:06:39.821Z,104219.36
2019-02-23T01:09:43.620Z,104223.48
2019-02-23T01:12:47.928Z,104223.70
2019-02-23T01:15:52.021Z,104220.05
2019-02-23T01:18:56.085Z,104222.29
2019-02-23T01:21:59.887Z,104220.17
2019-02-23T01:25:11.119Z,104224.29
2019-02-23T01:28:15.012Z,104221.17
2019-02-23T01:31:18.850Z,104213.25
2019-02-23T01:34:22.790Z,104210.20
2019-02-23T01:37:26.721Z,104207.91
2019-02-23T01:40:30.816Z,104212.75
2019-02-23T01:43:34.759Z,104202.36
2019-02-23T01:46:38.829Z,104204.48
2019-02-23T01:49:43.034Z,104205.78
2019-02-23T01:52:46.912Z,104199.94
2019-02-23T01:55:50.782Z,104191.81
2019-02-23T01:58:54.574Z,104192.20
2019-02-23T02:01:58.451Z,104184.66
2019-02-23T02:05:02.420Z,104184.47
2019-02-23T02:08:06.392Z,104180.74
2019-02-23T02:11:10.587Z,104177.44
2019-02-23T02:14:14.542Z,104178.82
2019-02-23T02:17:18.358Z,104184.86
2019-02-23T02:20:22.181Z,104188.28
2019-02-23T02:23:26.050Z,104184.16
2019-02-23T02:26:29.906Z,104179.55
2019-02-23T02:29:33.705Z,104179.05
2019-02-23T02:32:37.603Z,104180.17
2019-02-23T02:35:41.398Z,104185.78
2019-02-23T02:38:45.194Z,104184.48
2019-02-23T02:41:48.978Z,104189.70
2019-02-23T02:44:52.828Z,104189.89
2019-02-23T02:47:56.637Z,104180.47
2019-02-23T02:51:00.514Z,104184.89
2019-02-23T02:54:04.691Z,104170.02
2019-02-23T02:57:08.559Z,104167.28
2019-02-23T03:00:12.944Z,104164.05
2019-02-23T03:03:16.747Z,104163.17
2019-02-23T03:06:20.551Z,104167.16
2019-02-23T03:09:24.344Z,104169.78
2019-02-23T03:12:28.146Z,104169.59
2019-02-23T03:15:32.019Z,104169.09
2019-02-23T03:18:36.200Z,104173.51
2019-02-23T03:21:39.982Z,104173.62
2019-02-23T03:24:43.798Z,104169.28
2019-02-23T03:27:47.597Z,104172.01
2019-02-23T03:30:51.444Z,104174.62
2019-02-23T03:33:55.301Z,104161.44
2019-02-23T03:36:59.110Z,104169.00
2019-02-23T03:40:02.983Z,104159.73
2019-02-23T03:43:06.897Z,104164.66
2019-02-23T03:46:10.863Z,104178.22
2019-02-23T03:49:14.857Z,104180.64
2019-02-23T03:52:19.407Z,104178.83
2019-02-23T03:58:34.179Z,104184.06
2019-02-23T04:02:38.165Z,104190.09
2019-02-23T04:22:49.630Z,104167.04
2019-02-23T04:26:17.737Z,104161.55
2019-02-23T07:02:50.350Z,104134.17
2019-02-23T07:39:48.628Z,104132.28
2019-02-23T08:21:05.991Z,104118.03
2019-02-23T08:24:10.370Z,104125.16
2019-02-23T08:27:14.355Z,104117.61
2019-02-23T08:30:18.419Z,104121.83
2019-02-23T08:33:22.502Z,104127.55
2019-02-23T08:36:36.215Z,104116.92
2019-02-23T08:39:43.894Z,104117.61
2019-02-23T08:42:52.108Z,104119.50
2019-02-23T08:45:57.669Z,104118.41
2019-02-23T08:49:04.593Z,104116.19
2019-02-23T08:52:11.290Z,104115.23
2019-02-23T08:55:55.595Z,104107.63
2019-02-23T09:06:34.635Z,104082.48
2019-02-23T09:09:39.248Z,104078.02
2019-02-23T09:12:46.865Z,104075.73
2019-02-23T09:15:53.400Z,104067.92
2019-02-23T09:18:57.603Z,104071.86
2019-02-23T09:22:02.327Z,104076.39
2019-02-23T09:25:07.141Z,104072.03
2019-02-23T09:28:11.664Z,104067.59
2019-02-23T09:31:16.047Z,104069.49
2019-02-23T09:34:20.279Z,104081.33
2019-02-23T09:37:25.722Z,104087.33
2019-02-23T09:40:29.793Z,104080.20
2019-02-23T09:43:34.145Z,104065.53
2019-02-23T09:46:38.666Z,104065.10
2019-02-23T09:49:44.802Z,104055.65
2019-02-23T09:53:10.742Z,104051.28
2019-02-23T09:56:35.777Z,104042.84
2019-02-23T09:59:44.202Z,104056.38
2019-02-23T10:02:48.550Z,104051.55
2019-02-23T10:05:53.870Z,104048.86
2019-02-23T10:08:58.062Z,104050.97
2019-02-23T10:12:01.954Z,104052.93
2019-02-23T10:15:06.259Z,104062.92
2019-02-23T10:18:10.077Z,104073.30
2019-02-23T10:21:13.910Z,104080.27
2019-02-23T10:24:17.759Z,104067.60
2019-02-23T10:27:21.650Z,104071.06
2019-02-23T10:30:25.550Z,104071.80
2019-02-23T10:33:29.347Z,104070.63
2019-02-23T10:36:33.380Z,104060.97
2019-02-23T10:39:37.243Z,104055.36
2019-02-23T10:42:42.744Z,104059.44
2019-02-23T10:45:46.614Z,104055.98
2019-02-23T10:48:50.506Z,104062.21
2019-02-23T10:51:55.845Z,104065.12
2019-02-23T10:54:59.687Z,104070.85
2019-02-23T10:58:03.537Z,104070.52
2019-02-23T11:01:07.625Z,104074.73
2019-02-23T11:04:11.436Z,104069.56
2019-02-23T11:07:15.357Z,104068.62
2019-02-23T11:10:19.438Z,104064.67
2019-02-23T11:13:23.379Z,104055.47
2019-02-23T11:16:27.296Z,104052.02
2019-02-23T11:19:31.259Z,104036.44
2019-02-23T11:22:35.173Z,104034.34
2019-02-23T11:25:39.092Z,104031.05
2019-02-23T11:28:43.103Z,104045.11
2019-02-23T11:31:47.020Z,104046.86
2019-02-23T11:34:50.832Z,104049.01
2019-02-23T11:37:54.653Z,104046.23
2019-02-23T11:40:58.589Z,104035.42
2019-02-23T11:44:02.401Z,104038.23
2019-02-23T11:47:06.316Z,104024.68
2019-02-23T11:50:10.379Z,104024.68
2019-02-23T11:53:14.225Z,104023.88
2019-02-23T11:56:19.110Z,104015.71
2019-02-23T11:59:22.946Z,104016.06
2019-02-23T12:02:26.852Z,104015.48
2019-02-23T12:05:30.732Z,104011.53
2019-02-23T12:08:34.642Z,104005.94
2019-02-23T12:11:38.556Z,104007.91
2019-02-23T12:14:42.563Z,104001.56
2019-02-23T12:17:46.902Z,104006.36
2019-02-23T12:20:50.888Z,104003.49
2019-02-23T12:24:05.420Z,103994.42
2019-02-23T12:27:00.536Z,103986.52
2019-02-23T12:30:04.925Z,103986.56
2019-02-23T12:33:08.789Z,103983.88
2019-02-23T12:36:12.788Z,103976.50
2019-02-23T12:39:16.668Z,103981.41
2019-02-23T12:42:20.716Z,103978.38
2019-02-23T12:45:24.544Z,103975.30
2019-02-23T12:48:28.465Z,103973.45
2019-02-23T12:51:32.259Z,103974.70
2019-02-23T12:54:36.153Z,103970.82
2019-02-23T12:57:40.041Z,103973.38
2019-02-23T13:00:44.181Z,103968.11
2019-02-23T13:03:48.054Z,103970.59
2019-02-23T13:06:51.963Z,103978.42
2019-02-23T13:09:56.228Z,103975.78
2019-02-23T13:13:53.397Z,103979.63
2019-02-23T13:17:28.943Z,103973.06
2019-02-23T13:20:51.888Z,103957.59
2019-02-23T13:24:14.980Z,103953.18
2019-02-23T13:28:10.482Z,103948.80
2019-02-23T13:31:37.505Z,103943.75
2019-02-23T13:35:23.146Z,103951.75
2019-02-23T13:38:54.779Z,103950.06
2019-02-23T13:42:34.552Z,103942.88
2019-02-23T13:45:55.506Z,103940.57
2019-02-23T13:49:34.468Z,103935.29
2019-02-23T13:53:03.498Z,103930.48
2019-02-23T13:56:37.761Z,103934.59
2019-02-23T14:00:02.274Z,103930.16
2019-02-23T14:03:37.278Z,103925.72
2019-02-23T14:07:31.439Z,103922.34
2019-02-23T14:11:03.842Z,103924.25
2019-02-23T14:14:51.916Z,103923.48
2019-02-23T14:18:10.347Z,103916.62
2019-02-23T14:21:51.235Z,103911.00
2019-02-23T14:25:42.234Z,103903.27
2019-02-23T14:29:26.943Z,103905.23
2019-02-23T14:32:59.449Z,103911.94
2019-02-23T14:36:14.899Z,103915.64
2019-02-23T14:39:56.861Z,103915.30
2019-02-23T14:43:48.049Z,103911.92
2019-02-23T14:47:34.809Z,103905.42
2019-02-23T14:51:05.894Z,103899.28
2019-02-23T14:54:26.926Z,103910.23
2019-02-23T14:58:13.528Z,103908.97
2019-02-23T15:01:37.816Z,103903.55
2019-02-23T15:05:25.589Z,103897.86
2019-02-23T15:09:05.032Z,103893.42
2019-02-23T15:12:49.540Z,103899.92
2019-02-23T15:16:45.770Z,103897.69
2019-02-23T15:20:23.742Z,103899.31
2019-02-23T15:23:54.107Z,103907.13
2019-02-23T15:27:52.843Z,103899.20
2019-02-23T15:31:27.634Z,103893.41
2019-02-23T15:35:17.807Z,103894.30
2019-02-23T15:39:09.433Z,103887.11
2019-02-23T15:42:45.617Z,103889.50
2019-02-23T15:46:11.150Z,103890.83
2019-02-23T15:49:32.125Z,103886.39
2019-02-23T15:52:36.089Z,103884.66
2019-02-23T15:55:40.038Z,103882.91
2019-02-23T15:58:43.950Z,103875.89
2019-02-23T16:01:48.029Z,103873.19
2019-02-23T16:04:52.854Z,103867.39
2019-02-23T16:07:56.847Z,103870.81
2019-02-23T16:11:00.742Z,103874.73
2019-02-23T16:14:04.709Z,103866.74
2019-02-23T16:17:08.638Z,103867.84
2019-02-23T16:20:12.539Z,103868.92
2019-02-23T16:23:16.426Z,103870.50
2019-02-23T16:26:20.420Z,103871.61
2019-02-23T16:29:24.446Z,103874.47
2019-02-23T16:32:28.257Z,103872.45
2019-02-23T16:35:32.237Z,103873.95
2019-02-23T16:38:36.149Z,103875.45
2019-02-23T16:41:40.191Z,103872.12
2019-02-23T16:44:44.087Z,103864.38
2019-02-23T16:47:48.327Z,103865.44
2019-02-23T16:50:52.230Z,103866.45
2019-02-23T16:53:56.062Z,103862.63
2019-02-23T16:56:59.892Z,103869.31
2019-02-23T17:00:03.834Z,103869.44
2019-02-23T17:03:10.803Z,103872.69
2019-02-23T17:06:14.760Z,103872.69
2019-02-23T17:09:18.691Z,103872.85
2019-02-23T17:12:22.670Z,103868.98
2019-02-23T17:15:26.811Z,103868.66
2019-02-23T17:18:30.642Z,103870.48
2019-02-23T17:21:34.510Z,103873.70
2019-02-23T17:24:38.505Z,103862.77
2019-02-23T17:27:42.413Z,103869.45
2019-02-23T17:31:02.137Z,103865.20
2019-02-23T17:34:12.361Z,103870.97
2019-02-23T17:37:18.525Z,103869.67
2019-02-23T17:40:30.170Z,103864.15
2019-02-23T17:43:34.868Z,103857.58
2019-02-23T17:46:54.539Z,103860.27
2019-02-23T17:50:07.512Z,103860.83
2019-02-23T17:54:06.066Z,103852.85
2019-02-23T17:57:12.768Z,103864.91
2019-02-23T18:00:18.914Z,103868.16
2019-02-23T18:03:22.926Z,103860.39
2019-02-23T18:06:26.783Z,103860.47
2019-02-23T18:09:30.749Z,103858.02
2019-02-23T18:12:35.529Z,103860.02
2019-02-23T18:15:40.001Z,103854.63
2019-02-23T18:18:44.202Z,103849.23
2019-02-23T18:21:48.462Z,103847.61
2019-02-23T18:24:52.260Z,103851.36
2019-02-23T18:27:56.067Z,103847.67
2019-02-23T18:31:00.002Z,103850.65
2019-02-23T18:34:03.898Z,103849.73
2019-02-23T18:37:07.720Z,103856.25
2019-02-23T18:40:11.592Z,103855.28
2019-02-23T18:43:15.408Z,103853.39
2019-02-23T18:46:19.347Z,103849.70
2019-02-23T18:49:23.202Z,103849.91
2019-02-23T18:52:27.030Z,103846.80
2019-02-23T18:55:40.668Z,103845.00
2019-02-23T18:58:39.256Z,103840.63
2019-02-23T19:01:43.170Z,103843.06
2019-02-23T19:04:47.037Z,103841.17
2019-02-23T19:07:50.940Z,103837.14
2019-02-23T19:10:55.857Z,103836.75
2019-02-23T19:13:59.745Z,103833.15
2019-02-23T19:17:03.763Z,103834.86
2019-02-23T19:20:10.135Z,103833.06
2019-02-23T19:23:14.026Z,103832.92
2019-02-23T19:26:17.936Z,103823.23
2019-02-23T19:29:21.909Z,103820.47
2019-02-23T19:32:25.780Z,103821.30
2019-02-23T19:35:29.720Z,103817.04
2019-02-23T19:38:33.622Z,103819.18
2019-02-23T19:41:37.510Z,103825.12
2019-02-23T19:44:41.374Z,103828.09
2019-02-23T19:47:45.263Z,103825.71
2019-02-23T19:50:52.582Z,103824.73
2019-02-23T19:53:58.267Z,103821.05
2019-02-23T19:57:02.274Z,103819.11
2019-02-23T20:00:06.531Z,103822.27
2019-02-23T20:03:10.491Z,103817.36
2019-02-23T20:06:14.358Z,103816.69
2019-02-23T20:09:18.289Z,103819.66
2019-02-23T20:12:22.221Z,103816.39
2019-02-23T20:15:26.227Z,103810.66
2019-02-23T20:18:30.181Z,103807.55
2019-02-23T20:21:34.110Z,103806.09
2019-02-23T20:24:38.042Z,103805.60
2019-02-23T20:27:42.129Z,103807.22
2019-02-23T20:30:46.161Z,103814.60
2019-02-23T20:33:50.084Z,103813.72
2019-02-23T20:36:54.257Z,103811.34
2019-02-23T20:40:02.175Z,103811.92
2019-02-23T20:43:06.372Z,103820.42
2019-02-23T20:46:11.704Z,103813.37
2019-02-23T20:49:16.129Z,103813.89
2019-02-23T20:52:20.771Z,103815.78
2019-02-23T20:55:24.702Z,103815.38
2019-02-23T20:58:28.862Z,103812.50
2019-02-23T21:01:33.154Z,103814.81
2019-02-23T21:04:40.185Z,103811.12
2019-02-23T21:07:44.072Z,103818.83
2019-02-23T21:10:48.186Z,103815.05
2019-02-23T21:13:52.061Z,103823.58
2019-02-23T21:16:56.188Z,103822.10
2019-02-23T21:20:00.232Z,103825.39
2019-02-23T21:23:04.828Z,103818.81
2019-02-23T21:26:08.731Z,103816.36
2019-02-23T21:29:14.623Z,103817.09
2019-02-23T21:32:21.329Z,103819.16
2019-02-23T21:35:25.156Z,103815.69
2019-02-23T21:38:34.962Z,103814.39
2019-02-23T21:41:38.954Z,103818.38
2019-02-23T21:44:43.086Z,103815.17
2019-02-23T21:47:48.681Z,103808.63
2019-02-23T21:50:52.633Z,103805.84
2019-02-23T21:53:56.705Z,103804.37
2019-02-23T21:57:00.542Z,103815.98
2019-02-23T22:00:04.772Z,103821.03
2019-02-23T22:03:08.837Z,103816.55
2019-02-23T22:06:12.986Z,103820.20
2019-02-23T22:09:16.973Z,103816.44
2019-02-23T22:12:20.986Z,103817.09
2019-02-23T22:15:24.835Z,103812.96
2019-02-23T22:18:28.931Z,103804.39
2019-02-23T22:21:37.339Z,103801.28
2019-02-23T22:24:44.163Z,103804.55
2019-02-23T22:27:48.088Z,103796.11
2019-02-23T22:30:51.884Z,103789.56
2019-02-23T22:33:55.708Z,103790.28
2019-02-23T22:36:59.537Z,103787.10
2019-02-23T22:40:03.442Z,103784.06
2019-02-23T22:43:07.537Z,103779.91
2019-02-23T22:46:11.555Z,103785.80
2019-02-23T22:49:15.553Z,103794.84
2019-02-23T22:52:20.746Z,103794.02
2019-02-23T22:55:24.642Z,103798.44
2019-02-23T22:58:28.576Z,103790.48
2019-02-23T23:01:32.540Z,103784.98
2019-02-23T23:04:36.418Z,103785.47
2019-02-23T23:07:40.271Z,103790.22
2019-02-23T23:10:47.183Z,103786.30
2019-02-23T23:13:51.013Z,103786.45
2019-02-23T23:16:54.851Z,103784.27
2019-02-23T23:19:58.676Z,103788.52
2019-02-23T23:23:02.495Z,103789.73
2019-02-23T23:26:06.410Z,103792.84
2019-02-23T23:29:10.205Z,103786.30
2019-02-23T23:32:14.028Z,103785.08
2019-02-23T23:35:17.858Z,103780.01
2019-02-23T23:38:21.728Z,103775.81
2019-02-23T23:41:25.542Z,103776.37
2019-02-23T23:44:29.364Z,103786.56
2019-02-23T23:47:33.174Z,103779.53
2019-02-23T23:50:37.042Z,103781.00
2019-02-23T23:53:40.845Z,103782.36
2019-02-23T23:56:44.645Z,103789.61
2019-02-23T23:59:48.573Z,103791.99
